createdAt,value
2023-04-25T00:00:16.494Z,2.00
2023-04-25T00:02:43.591Z,1.67
2023-04-25T00:05:11.276Z,2.05
2023-04-25T00:07:38.071Z,2.10
2023-04-25T00:10:05.218Z,2.35
2023-04-25T00:12:31.871Z,2.30
2023-04-25T00:14:59.099Z,2.92
2023-04-25T00:17:25.886Z,2.85
2023-04-25T00:19:52.600Z,2.15
2023-04-25T00:22:19.472Z,2.60
2023-04-25T00:24:46.118Z,2.30
2023-04-25T00:27:12.762Z,2.50
2023-04-25T00:29:39.451Z,2.03
2023-04-25T00:32:06.270Z,2.22
2023-04-25T00:34:33.012Z,2.63
2023-04-25T00:36:59.731Z,1.90
2023-04-25T00:39:26.484Z,2.03
2023-04-25T00:41:55.423Z,2.50
2023-04-25T00:44:22.113Z,2.10
2023-04-25T00:46:50.097Z,1.80
2023-04-25T00:49:18.027Z,2.03
2023-04-25T00:51:45.849Z,2.05
2023-04-25T00:54:13.386Z,2.22
2023-04-25T00:56:40.275Z,1.80
2023-04-25T00:59:07.304Z,2.33
2023-04-25T01:01:34.125Z,1.88
2023-04-25T01:04:01.212Z,2.17
2023-04-25T01:06:28.437Z,2.05
2023-04-25T01:08:55.397Z,2.25
2023-04-25T01:11:22.051Z,2.80
2023-04-25T01:13:49.157Z,2.22
2023-04-25T01:16:16.162Z,2.20
2023-04-25T01:18:43.055Z,2.65
2023-04-25T01:21:11.601Z,2.85
2023-04-25T01:23:39.572Z,2.95
2023-04-25T01:26:06.852Z,2.28
2023-04-25T01:28:34.523Z,2.88
2023-04-25T01:31:01.436Z,2.28
2023-04-25T01:33:28.125Z,2.05
2023-04-25T01:35:54.793Z,2.60
2023-04-25T01:38:21.647Z,2.15
2023-04-25T01:40:48.335Z,2.35
2023-04-25T01:43:15.307Z,2.15
2023-04-25T01:45:43.041Z,2.25
2023-04-25T01:48:10.860Z,2.30
2023-04-25T01:50:39.147Z,2.05
2023-04-25T01:53:05.989Z,2.10
2023-04-25T01:55:32.693Z,2.10
2023-04-25T01:58:00.756Z,2.78
2023-04-25T02:00:27.469Z,3.97
2023-04-25T02:02:54.554Z,4.57
2023-04-25T02:05:21.678Z,2.95
2023-04-25T02:07:48.680Z,3.38
2023-04-25T02:10:15.904Z,3.70
2023-04-25T02:12:42.579Z,2.97
2023-04-25T02:15:09.645Z,2.30
2023-04-25T02:17:36.432Z,2.38
2023-04-25T02:20:03.773Z,2.95
2023-04-25T02:22:31.573Z,1.83
2023-04-25T02:24:58.929Z,2.55
2023-04-25T02:27:25.771Z,2.50
2023-04-25T02:29:52.927Z,2.85
2023-04-25T02:32:19.637Z,1.90
2023-04-25T02:34:46.250Z,1.98
2023-04-25T02:37:12.889Z,2.55
2023-04-25T02:39:39.523Z,2.20
2023-04-25T02:42:06.140Z,2.70
2023-04-25T02:44:32.732Z,2.72
2023-04-25T02:46:59.525Z,2.60
2023-04-25T02:49:26.297Z,2.67
2023-04-25T02:51:52.949Z,2.60
2023-04-25T02:54:19.663Z,2.30
2023-04-25T02:56:46.439Z,2.60
2023-04-25T02:59:13.226Z,3.05
2023-04-25T03:01:39.942Z,2.38
2023-04-25T03:04:06.617Z,2.80
2023-04-25T03:06:33.381Z,3.13
2023-04-25T03:09:00.123Z,2.42
2023-04-25T03:11:26.964Z,3.22
2023-04-25T03:13:53.668Z,2.22
2023-04-25T03:16:20.730Z,2.50
2023-04-25T03:18:47.528Z,2.55
2023-04-25T03:21:14.219Z,3.05
2023-04-25T03:23:41.052Z,3.45
2023-04-25T03:26:07.668Z,2.40
2023-04-25T03:28:34.463Z,3.13
2023-04-25T03:31:04.654Z,2.85
2023-04-25T03:33:31.488Z,2.90
2023-04-25T03:35:58.292Z,2.13
2023-04-25T03:38:25.052Z,2.60
2023-04-25T03:40:52.443Z,2.67
2023-04-25T03:43:19.144Z,2.10
2023-04-25T03:45:45.928Z,2.55
2023-04-25T03:48:12.789Z,2.22
2023-04-25T03:50:39.415Z,1.75
2023-04-25T03:53:06.107Z,2.05
2023-04-25T03:55:32.734Z,2.47
2023-04-25T03:57:59.480Z,2.50
2023-04-25T04:00:26.607Z,2.97
2023-04-25T04:02:53.413Z,1.67
2023-04-25T04:05:20.444Z,1.90
2023-04-25T04:07:47.329Z,2.63
2023-04-25T04:10:13.996Z,1.85
2023-04-25T04:12:40.628Z,2.20
2023-04-25T04:15:08.058Z,1.98
2023-04-25T04:17:35.097Z,2.17
2023-04-25T04:20:01.892Z,1.60
2023-04-25T04:22:28.563Z,1.55
2023-04-25T04:24:55.272Z,2.60
2023-04-25T04:27:22.634Z,1.70
2023-04-25T04:29:49.565Z,1.92
2023-04-25T04:32:16.420Z,2.28
2023-04-25T04:34:43.170Z,4.70
2023-04-25T04:37:11.398Z,2.40
2023-04-25T04:39:38.106Z,2.20
2023-04-25T04:42:05.887Z,2.13
2023-04-25T04:44:33.657Z,1.70
2023-04-25T04:47:00.860Z,1.67
2023-04-25T04:49:27.641Z,1.75
2023-04-25T04:51:56.839Z,10.35
2023-04-25T04:54:25.791Z,2.67
2023-04-25T04:56:55.267Z,2.40
2023-04-25T04:59:22.328Z,2.40
2023-04-25T05:01:49.148Z,2.85
2023-04-25T05:04:16.028Z,2.15
2023-04-25T05:06:42.759Z,2.00
2023-04-25T05:09:09.458Z,2.50
2023-04-25T05:11:36.105Z,2.67
2023-04-25T05:14:02.853Z,2.60
2023-04-25T05:16:29.677Z,2.13
2023-04-25T05:18:56.383Z,2.65
2023-04-25T05:21:23.433Z,2.20
2023-04-25T05:23:50.467Z,2.70
2023-04-25T05:26:17.352Z,1.90
2023-04-25T05:28:44.090Z,2.35
2023-04-25T05:31:11.338Z,2.45
2023-04-25T05:33:38.128Z,2.22
2023-04-25T05:36:05.298Z,2.58
2023-04-25T05:38:34.673Z,2.10
2023-04-25T05:41:01.868Z,2.33
2023-04-25T05:43:28.535Z,2.72
2023-04-25T05:45:55.363Z,3.05
2023-04-25T05:48:22.241Z,2.65
2023-04-25T05:50:49.100Z,3.33
2023-04-25T05:53:15.802Z,3.03
2023-04-25T05:55:42.567Z,2.85
2023-04-25T05:58:09.262Z,3.22
2023-04-25T06:00:35.922Z,3.08
2023-04-25T06:03:02.865Z,3.22
2023-04-25T06:05:29.799Z,3.08
2023-04-25T06:07:56.920Z,3.97
2023-04-25T06:10:23.834Z,3.55
2023-04-25T06:12:50.671Z,3.28
2023-04-25T06:15:28.164Z,3.33
2023-04-25T06:17:57.025Z,3.45
2023-04-25T06:20:25.328Z,3.63
2023-04-25T06:22:53.647Z,3.13
2023-04-25T06:25:20.847Z,2.90
2023-04-25T06:27:47.552Z,4.55
2023-04-25T06:30:14.313Z,4.35
2023-04-25T06:32:41.017Z,3.13
2023-04-25T06:35:07.954Z,4.07
2023-04-25T06:37:34.709Z,5.65
2023-04-25T06:40:01.900Z,4.60
2023-04-25T06:42:28.705Z,4.88
2023-04-25T06:44:55.797Z,3.83
2023-04-25T06:47:22.647Z,3.67
2023-04-25T06:49:49.680Z,3.20
2023-04-25T06:52:16.559Z,3.30
2023-04-25T06:54:43.219Z,4.15
2023-04-25T06:57:09.884Z,4.38
2023-04-25T06:59:36.526Z,4.25
2023-04-25T07:02:03.436Z,3.90
2023-04-25T07:04:30.244Z,2.90
2023-04-25T07:06:57.272Z,4.60
2023-04-25T07:09:24.024Z,6.10
2023-04-25T07:11:50.808Z,6.63
2023-04-25T07:14:17.738Z,4.43
2023-04-25T07:16:44.424Z,3.88
2023-04-25T07:19:11.432Z,4.07
2023-04-25T07:21:38.316Z,3.17
2023-04-25T07:24:08.097Z,4.38
2023-04-25T07:26:34.774Z,3.90
2023-04-25T07:29:01.676Z,2.80
2023-04-25T07:31:28.591Z,2.78
2023-04-25T07:33:55.312Z,3.13
2023-04-25T07:36:22.521Z,2.38
2023-04-25T07:38:49.306Z,2.88
2023-04-25T07:41:16.181Z,5.32
2023-04-25T07:43:42.831Z,4.53
2023-04-25T07:46:09.635Z,5.35
2023-04-25T07:48:36.517Z,5.03
2023-04-25T07:51:05.357Z,5.63
2023-04-25T07:53:32.974Z,5.90
2023-04-25T07:55:59.624Z,5.20
2023-04-25T07:58:26.327Z,4.03
2023-04-25T08:00:52.986Z,3.78
2023-04-25T08:03:19.825Z,4.60
2023-04-25T08:05:47.277Z,5.07
2023-04-25T08:08:14.073Z,4.80
2023-04-25T08:10:41.333Z,4.97
2023-04-25T08:13:10.815Z,4.65
2023-04-25T08:15:37.668Z,4.60
2023-04-25T08:18:04.442Z,3.08
2023-04-25T08:20:31.506Z,3.30
2023-04-25T08:22:58.493Z,3.20
2023-04-25T08:25:25.417Z,4.30
2023-04-25T08:27:52.293Z,4.47
2023-04-25T08:30:19.440Z,3.65
2023-04-25T08:32:46.239Z,4.53
2023-04-25T08:35:13.156Z,4.20
2023-04-25T08:37:40.188Z,4.43
2023-04-25T08:40:08.032Z,4.55
2023-04-25T08:42:36.353Z,3.67
2023-04-25T08:45:06.948Z,3.80
2023-04-25T08:47:35.338Z,4.28
2023-04-25T08:50:03.937Z,4.30
2023-04-25T08:52:33.766Z,3.88
2023-04-25T08:55:00.400Z,4.85
2023-04-25T08:57:27.196Z,5.15
2023-04-25T08:59:55.071Z,3.65
2023-04-25T09:02:22.189Z,3.13
2023-04-25T09:04:49.047Z,3.28
2023-04-25T09:07:19.532Z,3.63
2023-04-25T09:09:46.404Z,4.57
2023-04-25T09:12:13.073Z,3.38
2023-04-25T09:14:39.894Z,3.40
2023-04-25T09:17:08.598Z,3.55
2023-04-25T09:19:42.289Z,3.67
2023-04-25T09:22:09.457Z,3.97
2023-04-25T09:24:55.807Z,3.63
2023-04-25T09:27:27.918Z,3.60
2023-04-25T09:30:01.162Z,3.33
2023-04-25T09:32:28.156Z,1.90
2023-04-25T09:34:57.276Z,1.85
2023-04-25T09:37:28.963Z,1.58
2023-04-25T09:40:00.170Z,2.23
2023-04-25T09:42:28.354Z,2.03
2023-04-25T09:44:55.653Z,1.95
2023-04-25T09:47:24.467Z,1.70
2023-04-25T09:49:51.575Z,2.00
2023-04-25T09:52:19.831Z,1.60
2023-04-25T09:54:47.101Z,2.00
2023-04-25T09:57:16.816Z,2.33
2023-04-25T09:59:46.614Z,1.80
2023-04-25T10:02:14.045Z,2.00
2023-04-25T10:04:40.871Z,2.20
2023-04-25T10:07:08.298Z,2.13
2023-04-25T10:09:36.085Z,3.53
2023-04-25T10:12:04.311Z,3.63
2023-04-25T10:14:32.617Z,4.85
2023-04-25T10:16:59.845Z,3.20
2023-04-25T10:19:27.505Z,3.30
2023-04-25T10:22:02.234Z,4.00
2023-04-25T10:24:29.059Z,3.08
2023-04-25T10:26:56.485Z,2.85
2023-04-25T10:29:24.823Z,2.70
2023-04-25T10:31:54.672Z,1.45
2023-04-25T10:34:25.550Z,2.22
2023-04-25T10:36:53.279Z,2.25
2023-04-25T10:39:26.232Z,5.30
2023-04-25T10:41:57.018Z,6.13
2023-04-25T10:44:23.933Z,2.35
2023-04-25T10:46:50.714Z,2.67
2023-04-25T10:49:38.346Z,2.20
2023-04-25T10:54:59.075Z,1.80
2023-04-25T10:57:47.374Z,3.30
2023-04-25T11:00:18.291Z,3.35
2023-04-25T11:02:48.085Z,4.32
2023-04-25T11:05:22.561Z,4.85
2023-04-25T11:08:03.859Z,4.30
2023-04-25T11:10:36.085Z,3.72
2023-04-25T11:13:02.767Z,3.97
2023-04-25T11:15:29.742Z,3.65
2023-04-25T11:17:56.615Z,3.58
2023-04-25T11:20:23.752Z,2.13
2023-04-25T11:22:52.699Z,2.95
2023-04-25T11:25:21.070Z,3.00
2023-04-25T11:27:56.945Z,4.05
2023-04-25T11:30:24.773Z,2.97
2023-04-25T11:32:52.865Z,2.83
2023-04-25T11:35:21.109Z,2.80
2023-04-25T11:37:47.909Z,2.88
2023-04-25T11:40:14.782Z,3.10
2023-04-25T11:42:45.119Z,3.40
2023-04-25T11:45:11.999Z,3.17
2023-04-25T11:47:38.932Z,3.25
2023-04-25T11:50:07.434Z,4.05
2023-04-25T11:55:17.475Z,4.43
2023-04-25T11:57:45.527Z,2.83
2023-04-25T12:00:18.040Z,2.40
2023-04-25T12:02:48.203Z,1.33
2023-04-25T12:05:31.256Z,1.60
2023-04-25T12:08:10.367Z,1.65
2023-04-25T12:10:41.023Z,1.85
2023-04-25T12:13:24.677Z,2.13
2023-04-25T12:15:51.690Z,1.42
2023-04-25T12:18:22.393Z,1.58
2023-04-25T12:20:49.055Z,1.95
2023-04-25T12:23:15.797Z,2.22
2023-04-25T12:25:43.764Z,2.13
2023-04-25T12:28:20.632Z,1.60
2023-04-25T12:31:05.371Z,1.40
2023-04-25T12:33:34.537Z,1.20
2023-04-25T12:36:06.429Z,1.50
2023-04-25T12:38:37.536Z,1.60
2023-04-25T12:41:04.168Z,2.25
2023-04-25T12:43:30.924Z,1.75
2023-04-25T12:45:57.780Z,1.52
2023-04-25T12:48:24.873Z,1.55
2023-04-25T12:50:52.702Z,1.73
2023-04-25T12:53:20.023Z,1.20
2023-04-25T12:55:47.622Z,1.55
2023-04-25T12:58:15.607Z,1.40
2023-04-25T13:00:43.026Z,4.43
2023-04-25T13:03:10.808Z,1.48
2023-04-25T13:05:38.073Z,1.23
2023-04-25T13:08:05.189Z,1.13
2023-04-25T13:10:32.110Z,1.17
2023-04-25T13:12:58.749Z,1.30
2023-04-25T13:15:25.811Z,2.00
2023-04-25T13:17:52.510Z,1.70
2023-04-25T13:20:19.887Z,1.45
2023-04-25T13:22:46.669Z,1.85
2023-04-25T13:25:13.379Z,1.50
2023-04-25T13:27:41.646Z,1.10
2023-04-25T13:30:08.965Z,1.60
2023-04-25T13:32:37.252Z,1.60
2023-04-25T13:35:07.852Z,1.35
2023-04-25T13:37:36.514Z,1.58
2023-04-25T13:40:05.972Z,1.70
2023-04-25T13:42:32.992Z,1.05
2023-04-25T13:44:59.694Z,1.00
2023-04-25T13:47:26.614Z,1.55
2023-04-25T13:49:53.358Z,1.50
2023-04-25T13:52:20.143Z,0.90
2023-04-25T13:54:47.025Z,1.10
2023-04-25T13:57:13.979Z,1.10
2023-04-25T13:59:41.780Z,1.73
2023-04-25T14:02:08.440Z,1.77
2023-04-25T14:04:35.364Z,1.38
2023-04-25T14:07:03.125Z,1.90
2023-04-25T14:09:30.447Z,1.83
2023-04-25T14:11:57.340Z,1.90
2023-04-25T14:14:24.706Z,1.33
2023-04-25T14:16:52.636Z,1.52
2023-04-25T14:19:21.632Z,2.67
2023-04-25T14:21:49.065Z,2.85
2023-04-25T14:24:15.860Z,3.08
2023-04-25T14:26:43.383Z,3.08
2023-04-25T14:29:12.612Z,1.83
2023-04-25T14:31:40.483Z,1.42
2023-04-25T14:34:07.228Z,1.45
2023-04-25T14:36:34.022Z,1.30
2023-04-25T14:39:01.000Z,1.23
2023-04-25T14:41:27.880Z,1.50
2023-04-25T14:43:54.804Z,1.30
2023-04-25T14:46:23.512Z,1.40
2023-04-25T14:48:50.680Z,1.30
2023-04-25T14:51:17.427Z,1.73
2023-04-25T14:53:44.133Z,2.05
2023-04-25T14:56:10.872Z,1.90
2023-04-25T14:58:38.585Z,0.90
2023-04-25T15:01:05.320Z,1.00
2023-04-25T15:03:32.948Z,0.90
2023-04-25T15:05:59.836Z,1.13
2023-04-25T15:08:26.902Z,1.48
2023-04-25T15:10:54.319Z,0.55
2023-04-25T15:13:21.031Z,0.77
2023-04-25T15:15:52.069Z,1.30
2023-04-25T15:18:22.866Z,1.05
2023-04-25T15:20:50.066Z,0.90
2023-04-25T15:23:16.932Z,1.20
2023-04-25T15:25:43.663Z,2.28
2023-04-25T15:28:10.359Z,0.90
2023-04-25T15:30:39.588Z,1.02
2023-04-25T15:33:06.290Z,1.10
2023-04-25T15:35:32.965Z,1.08
2023-04-25T15:37:59.750Z,1.60
2023-04-25T15:40:26.753Z,1.73
2023-04-25T15:42:53.749Z,1.60
2023-04-25T15:45:22.255Z,1.45
2023-04-25T15:47:49.681Z,1.33
2023-04-25T15:50:16.375Z,1.77
2023-04-25T15:52:43.595Z,2.78
2023-04-25T15:55:10.512Z,2.15
2023-04-25T15:57:37.688Z,1.92
2023-04-25T16:00:10.866Z,1.83
2023-04-25T16:02:39.501Z,1.45
2023-04-25T16:05:06.950Z,1.45
2023-04-25T16:07:33.662Z,1.75
2023-04-25T16:10:00.485Z,2.10
2023-04-25T16:12:28.497Z,2.20
2023-04-25T16:14:56.046Z,2.08
2023-04-25T16:17:22.725Z,2.47
2023-04-25T16:19:50.243Z,2.03
2023-04-25T16:22:17.949Z,2.33
2023-04-25T16:24:44.895Z,2.35
2023-04-25T16:27:11.618Z,2.85
2023-04-25T16:29:38.475Z,2.10
2023-04-25T16:32:05.304Z,3.40
2023-04-25T16:34:31.956Z,2.40
2023-04-25T16:36:58.680Z,2.35
2023-04-25T16:39:25.492Z,2.55
2023-04-25T16:41:52.179Z,2.67
2023-04-25T16:44:19.187Z,2.78
2023-04-25T16:46:46.403Z,3.83
2023-04-25T16:49:13.298Z,3.13
2023-04-25T16:51:39.923Z,2.88
2023-04-25T16:54:06.697Z,2.72
2023-04-25T16:56:33.389Z,2.78
2023-04-25T16:59:01.256Z,2.78
2023-04-25T17:01:28.062Z,2.63
2023-04-25T17:03:54.984Z,3.20
2023-04-25T17:06:22.018Z,2.58
2023-04-25T17:08:48.799Z,2.88
2023-04-25T17:11:15.630Z,2.97
2023-04-25T17:13:43.938Z,3.10
2023-04-25T17:16:13.627Z,3.13
2023-04-25T17:18:40.460Z,3.63
2023-04-25T17:21:07.930Z,2.95
2023-04-25T17:23:34.658Z,3.20
2023-04-25T17:26:02.410Z,3.40
2023-04-25T17:28:29.209Z,3.22
2023-04-25T17:30:57.489Z,3.40
2023-04-25T17:33:26.941Z,4.03
2023-04-25T17:35:54.305Z,3.60
2023-04-25T17:38:21.570Z,3.53
2023-04-25T17:40:48.206Z,3.47
2023-04-25T17:43:14.852Z,3.70
2023-04-25T17:45:41.475Z,4.15
2023-04-25T17:48:08.465Z,4.05
2023-04-25T17:50:35.166Z,3.40
2023-04-25T17:53:03.635Z,6.22
2023-04-25T17:55:30.476Z,3.60
2023-04-25T17:57:57.161Z,4.47
2023-04-25T18:00:24.039Z,2.92
2023-04-25T18:02:52.020Z,3.53
2023-04-25T18:05:19.032Z,3.20
2023-04-25T18:07:46.002Z,3.50
2023-04-25T18:10:14.599Z,3.72
2023-04-25T18:12:41.515Z,4.50
2023-04-25T18:15:09.222Z,4.15
2023-04-25T18:17:40.386Z,3.33
2023-04-25T18:20:11.810Z,1.85
2023-04-25T18:22:38.477Z,1.40
2023-04-25T18:25:05.864Z,1.50
2023-04-25T18:27:32.717Z,1.40
2023-04-25T18:29:59.636Z,1.98
2023-04-25T18:32:28.397Z,1.95
2023-04-25T18:34:55.520Z,1.70
2023-04-25T18:37:25.173Z,2.60
2023-04-25T18:39:52.024Z,3.20
2023-04-25T18:42:19.871Z,3.65
2023-04-25T18:44:46.893Z,2.80
2023-04-25T18:47:13.873Z,2.47
2023-04-25T18:49:40.827Z,2.70
2023-04-25T18:52:10.426Z,3.60
2023-04-25T18:54:37.414Z,2.97
2023-04-25T18:57:06.138Z,3.55
2023-04-25T18:59:33.391Z,5.18
2023-04-25T19:02:01.955Z,10.43
2023-04-25T19:04:29.753Z,4.07
2023-04-25T19:06:56.800Z,4.30
2023-04-25T19:09:23.525Z,4.82
2023-04-25T19:11:50.383Z,4.30
2023-04-25T19:14:17.309Z,4.65
2023-04-25T19:16:44.300Z,5.68
2023-04-25T19:19:11.502Z,5.32
2023-04-25T19:21:38.243Z,6.68
2023-04-25T19:24:05.324Z,5.88
2023-04-25T19:26:32.188Z,4.30
2023-04-25T19:29:15.260Z,4.88
2023-04-25T19:31:43.270Z,4.68
2023-04-25T19:34:10.185Z,4.97
2023-04-25T19:36:38.354Z,5.22
2023-04-25T19:39:07.134Z,4.72
2023-04-25T19:41:35.980Z,4.78
2023-04-25T19:44:04.828Z,4.38
2023-04-25T19:46:32.048Z,5.18
2023-04-25T19:48:58.877Z,7.55
2023-04-25T19:51:27.176Z,4.63
2023-04-25T19:53:55.057Z,4.28
2023-04-25T19:56:22.767Z,5.00
2023-04-25T19:58:49.913Z,4.38
2023-04-25T20:01:17.195Z,5.53
2023-04-25T20:03:44.317Z,5.00
2023-04-25T20:06:11.356Z,5.70
2023-04-25T20:08:38.136Z,4.93
2023-04-25T20:11:04.800Z,4.85
2023-04-25T20:13:31.640Z,4.50
2023-04-25T20:16:00.039Z,4.25
2023-04-25T20:18:29.488Z,4.88
2023-04-25T20:20:56.531Z,4.28
2023-04-25T20:23:23.306Z,4.85
2023-04-25T20:25:50.437Z,3.95
2023-04-25T20:28:17.379Z,4.60
2023-04-25T20:30:44.317Z,5.18
2023-04-25T20:33:11.048Z,5.00
2023-04-25T20:35:37.912Z,5.45
2023-04-25T20:38:04.594Z,5.05
2023-04-25T20:40:31.506Z,4.82
2023-04-25T20:42:58.512Z,5.40
2023-04-25T20:45:29.899Z,6.03
2023-04-25T20:47:56.788Z,5.75
2023-04-25T20:50:23.608Z,7.68
2023-04-25T20:52:50.920Z,5.50
2023-04-25T20:55:17.937Z,5.68
2023-04-25T20:57:44.795Z,5.25
2023-04-25T21:00:18.426Z,4.50
2023-04-25T21:02:46.861Z,5.28
2023-04-25T21:05:14.046Z,4.57
2023-04-25T21:07:40.810Z,5.05
2023-04-25T21:10:07.774Z,4.80
2023-04-25T21:12:36.205Z,4.40
2023-04-25T21:15:04.231Z,5.43
2023-04-25T21:17:31.079Z,4.47
2023-04-25T21:19:57.729Z,5.18
2023-04-25T21:22:24.526Z,4.60
2023-04-25T21:24:54.045Z,4.75
2023-04-25T21:27:20.835Z,4.78
2023-04-25T21:29:47.630Z,6.03
2023-04-25T21:32:17.511Z,5.60
2023-04-25T21:34:44.230Z,5.63
2023-04-25T21:37:11.148Z,4.38
2023-04-25T21:39:37.802Z,5.07
2023-04-25T21:42:08.873Z,5.30
2023-04-25T21:44:36.306Z,4.40
2023-04-25T21:47:04.401Z,4.78
2023-04-25T21:49:32.720Z,4.45
2023-04-25T21:51:59.985Z,5.68
2023-04-25T21:54:27.168Z,4.85
2023-04-25T21:56:54.181Z,4.68
2023-04-25T21:59:23.930Z,4.60
2023-04-25T22:01:50.714Z,4.60
2023-04-25T22:04:17.833Z,4.35
2023-04-25T22:06:46.423Z,6.78
2023-04-25T22:09:13.415Z,4.47
2023-04-25T22:11:40.977Z,5.45
2023-04-25T22:14:07.677Z,5.85
2023-04-25T22:16:34.660Z,5.47
2023-04-25T22:19:01.387Z,4.15
2023-04-25T22:21:28.125Z,5.25
2023-04-25T22:23:56.566Z,5.25
2023-04-25T22:26:25.428Z,5.43
2023-04-25T22:28:52.330Z,5.68
2023-04-25T22:31:19.549Z,4.85
2023-04-25T22:33:47.304Z,5.25
2023-04-25T22:36:14.358Z,5.53
2023-04-25T22:38:41.400Z,4.93
2023-04-25T22:41:08.860Z,5.70
2023-04-25T22:43:39.633Z,4.28
2023-04-25T22:46:07.312Z,5.57
2023-04-25T22:48:34.066Z,5.15
2023-04-25T22:51:03.057Z,5.35
2023-04-25T22:53:31.084Z,4.95
2023-04-25T22:55:57.928Z,6.25
2023-04-25T22:58:24.691Z,5.53
2023-04-25T23:00:52.076Z,6.78
2023-04-25T23:03:19.919Z,5.30
2023-04-25T23:05:47.437Z,6.68
2023-04-25T23:08:17.120Z,5.78
2023-04-25T23:10:44.029Z,6.07
2023-04-25T23:13:10.983Z,6.70
2023-04-25T23:15:40.907Z,6.45
2023-04-25T23:18:08.177Z,6.75
2023-04-25T23:20:34.851Z,8.00
2023-04-25T23:23:01.478Z,7.18
2023-04-25T23:25:28.466Z,7.43
2023-04-25T23:27:55.315Z,7.30
2023-04-25T23:30:22.147Z,7.22
2023-04-25T23:32:48.912Z,7.57
2023-04-25T23:35:15.604Z,9.13
2023-04-25T23:37:42.353Z,7.55
2023-04-25T23:40:10.404Z,8.63
2023-04-25T23:42:37.676Z,9.48
2023-04-25T23:45:05.964Z,9.38
2023-04-25T23:47:32.946Z,8.60
2023-04-25T23:49:59.598Z,8.88
2023-04-25T23:52:27.907Z,9.02
2023-04-25T23:54:56.203Z,10.15
2023-04-25T23:57:22.828Z,11.43
2023-04-25T23:59:49.449Z,10.77
